createdAt,value
2018-06-20T00:03:04.562Z,5.63
2018-06-20T00:07:08.392Z,5.57
2018-06-20T00:11:11.996Z,6.10
2018-06-20T00:15:16.027Z,6.37
2018-06-20T00:19:19.802Z,5.40
2018-06-20T00:23:23.619Z,6.43
2018-06-20T00:27:27.103Z,5.00
2018-06-20T00:31:30.676Z,7.37
2018-06-20T00:35:38.148Z,5.77
2018-06-20T00:39:42.072Z,5.87
2018-06-20T00:43:47.186Z,5.80
2018-06-20T00:47:51.430Z,5.60
2018-06-20T00:51:55.143Z,5.60
2018-06-20T00:56:10.140Z,6.13
2018-06-20T01:00:14.452Z,5.17
2018-06-20T01:04:18.920Z,5.73
2018-06-20T01:08:22.286Z,5.67
2018-06-20T01:12:26.021Z,6.30
2018-06-20T01:16:29.550Z,8.60
2018-06-20T01:20:33.103Z,5.20
2018-06-20T01:24:36.827Z,7.40
2018-06-20T01:28:40.473Z,5.27
2018-06-20T01:32:44.618Z,5.23
2018-06-20T01:36:48.640Z,6.00
2018-06-20T01:40:53.416Z,6.03
2018-06-20T01:44:57.039Z,5.30
2018-06-20T01:49:00.602Z,5.67
2018-06-20T01:53:04.606Z,5.80
2018-06-20T01:57:08.359Z,6.30
2018-06-20T02:01:12.538Z,5.37
2018-06-20T02:05:16.605Z,6.10
2018-06-20T02:09:20.999Z,7.20
2018-06-20T02:13:24.839Z,5.70
2018-06-20T02:17:28.423Z,6.63
2018-06-20T02:21:31.947Z,5.70
2018-06-20T02:25:35.608Z,5.60
2018-06-20T02:29:39.180Z,6.80
2018-06-20T02:33:42.966Z,6.57
2018-06-20T02:37:47.238Z,6.97
2018-06-20T02:41:51.224Z,8.97
2018-06-20T02:45:54.928Z,6.90
2018-06-20T02:49:58.706Z,5.93
2018-06-20T02:54:02.295Z,10.80
2018-06-20T02:58:06.029Z,7.37
2018-06-20T03:02:10.000Z,5.93
2018-06-20T03:06:13.912Z,8.80
2018-06-20T03:10:17.886Z,6.20
2018-06-20T03:14:21.935Z,6.57
2018-06-20T03:18:25.593Z,9.33
2018-06-20T03:22:29.158Z,7.50
2018-06-20T03:26:32.830Z,8.47
2018-06-20T03:30:36.377Z,6.03
2018-06-20T03:34:40.435Z,7.00
2018-06-20T03:38:44.681Z,10.27
2018-06-20T03:42:48.522Z,9.23
2018-06-20T03:46:52.127Z,8.67
2018-06-20T03:50:55.669Z,11.67
2018-06-20T03:54:59.383Z,10.97
2018-06-20T03:59:03.054Z,6.90
2018-06-20T04:03:06.732Z,6.57
2018-06-20T04:07:10.282Z,13.60
2018-06-20T04:11:14.253Z,9.97
2018-06-20T04:15:18.084Z,7.50
2018-06-20T04:19:22.035Z,11.43
2018-06-20T04:23:25.540Z,7.37
2018-06-20T04:27:29.047Z,7.03
2018-06-20T04:31:32.655Z,9.77
2018-06-20T04:35:36.257Z,7.30
2018-06-20T04:39:39.984Z,8.33
2018-06-20T04:43:43.389Z,11.57
2018-06-20T04:47:47.198Z,7.70
2018-06-20T04:51:50.955Z,10.90
2018-06-20T04:55:54.716Z,9.50
2018-06-20T04:59:58.275Z,10.10
2018-06-20T05:04:01.859Z,11.63
2018-06-20T05:08:05.483Z,9.80
2018-06-20T05:12:09.116Z,8.67
2018-06-20T05:16:13.162Z,10.77
2018-06-20T05:20:17.201Z,9.20
2018-06-20T05:24:21.328Z,8.70
2018-06-20T05:28:25.211Z,9.90
2018-06-20T05:32:28.787Z,10.53
2018-06-20T05:36:32.315Z,8.97
2018-06-20T05:40:36.171Z,13.37
2018-06-20T05:44:39.819Z,14.03
2018-06-20T05:48:44.678Z,10.47
2018-06-20T05:52:48.481Z,7.87
2018-06-20T05:56:52.334Z,8.00
2018-06-20T06:00:55.942Z,9.33
2018-06-20T06:04:59.540Z,11.03
2018-06-20T06:09:03.374Z,7.60
2018-06-20T06:13:07.270Z,9.77
2018-06-20T06:17:10.828Z,8.80
2018-06-20T06:21:14.890Z,9.47
2018-06-20T06:25:19.170Z,6.60
2018-06-20T06:29:23.042Z,8.60
2018-06-20T06:33:26.566Z,11.23
2018-06-20T06:37:30.135Z,11.40
2018-06-20T06:41:33.827Z,7.87
2018-06-20T06:45:37.382Z,5.97
2018-06-20T06:49:40.976Z,8.65
2018-06-20T06:53:45.447Z,7.28
2018-06-20T06:57:49.091Z,10.05
2018-06-20T07:01:52.709Z,6.42
2018-06-20T07:05:59.768Z,8.88
2018-06-20T07:10:03.556Z,8.18
2018-06-20T07:14:07.271Z,8.10
2018-06-20T07:18:10.849Z,7.60
2018-06-20T07:22:14.591Z,8.10
2018-06-20T07:26:18.365Z,6.35
2018-06-20T07:30:21.947Z,6.58
2018-06-20T07:34:25.835Z,4.97
2018-06-20T07:38:29.347Z,5.95
2018-06-20T07:42:33.217Z,5.90
2018-06-20T07:46:36.947Z,8.15
2018-06-20T07:50:41.589Z,3.47
2018-06-20T07:54:45.392Z,4.22
2018-06-20T07:58:54.303Z,4.53
2018-06-20T08:03:14.347Z,3.45
2018-06-20T08:07:23.236Z,3.70
2018-06-20T08:11:32.027Z,4.50
2018-06-20T08:15:41.818Z,5.50
2018-06-20T08:19:52.019Z,5.23
2018-06-20T08:23:55.830Z,4.60
2018-06-20T08:28:01.465Z,3.83
2018-06-20T08:32:05.113Z,5.17
2018-06-20T08:36:08.650Z,4.70
2018-06-20T08:40:12.293Z,4.03
2018-06-20T08:44:16.112Z,7.03
2018-06-20T08:48:19.706Z,5.50
2018-06-20T08:52:23.572Z,4.93
2018-06-20T08:56:26.953Z,5.13
2018-06-20T09:00:35.593Z,7.53
2018-06-20T09:05:42.862Z,5.33
2018-06-20T09:09:51.959Z,5.23
2018-06-20T09:14:00.861Z,6.77
2018-06-20T09:18:10.051Z,7.20
2018-06-20T09:22:14.443Z,7.23
2018-06-20T09:26:18.180Z,4.47
2018-06-20T09:30:21.896Z,4.50
2018-06-20T09:34:25.418Z,4.87
2018-06-20T09:38:29.334Z,3.63
2018-06-20T09:42:33.022Z,5.30
2018-06-20T09:46:36.751Z,5.37
2018-06-20T09:50:50.087Z,5.43
2018-06-20T09:54:53.809Z,5.27
2018-06-20T09:59:01.600Z,4.63
2018-06-20T10:03:10.678Z,5.90
2018-06-20T10:07:14.978Z,4.67
2018-06-20T10:12:28.252Z,4.57
2018-06-20T10:16:32.249Z,4.53
2018-06-20T10:20:35.890Z,4.93
2018-06-20T10:24:39.446Z,4.53
2018-06-20T10:28:44.917Z,4.87
2018-06-20T10:32:48.688Z,4.83
2018-06-20T10:36:52.318Z,4.57
2018-06-20T10:40:56.194Z,4.60
2018-06-20T10:47:06.804Z,5.60
2018-06-20T10:51:14.642Z,5.60
2018-06-20T10:55:19.002Z,4.63
2018-06-20T10:59:28.923Z,4.53
2018-06-20T11:03:38.007Z,4.73
2018-06-20T11:07:46.892Z,4.33
2018-06-20T11:11:55.810Z,4.13
2018-06-20T11:15:59.446Z,4.83
2018-06-20T11:20:08.349Z,4.63
2018-06-20T11:24:12.219Z,4.93
2018-06-20T11:28:17.070Z,4.10
2018-06-20T11:32:20.890Z,4.63
2018-06-20T11:36:24.614Z,4.23
2018-06-20T11:40:28.170Z,4.13
2018-06-20T11:44:31.728Z,5.23
2018-06-20T11:48:36.367Z,4.87
2018-06-20T11:52:46.015Z,4.23
2018-06-20T11:56:49.654Z,5.10
2018-06-20T12:03:06.174Z,3.90
2018-06-20T12:07:15.214Z,4.43
2018-06-20T12:11:24.191Z,6.03
2018-06-20T12:15:33.127Z,5.03
2018-06-20T12:19:42.081Z,4.17
2018-06-20T12:23:51.118Z,4.67
2018-06-20T12:27:59.917Z,4.20
2018-06-20T12:32:08.859Z,5.37
2018-06-20T12:36:18.171Z,5.00
2018-06-20T12:40:28.148Z,6.50
2018-06-20T12:44:37.071Z,4.70
2018-06-20T12:48:40.632Z,5.30
2018-06-20T12:52:45.130Z,4.70
2018-06-20T12:56:49.028Z,5.93
2018-06-20T13:00:53.975Z,5.23
2018-06-20T13:04:57.507Z,4.80
2018-06-20T13:09:01.472Z,4.50
2018-06-20T13:13:06.115Z,5.13
2018-06-20T13:17:09.681Z,7.23
2018-06-20T13:21:15.585Z,4.37
2018-06-20T13:25:19.334Z,7.13
2018-06-20T13:29:24.805Z,5.13
2018-06-20T13:33:37.448Z,5.83
2018-06-20T13:37:47.348Z,4.63
2018-06-20T13:42:05.530Z,4.10
2018-06-20T13:46:16.448Z,4.00
2018-06-20T13:50:20.164Z,6.10
2018-06-20T13:54:27.602Z,4.37
2018-06-20T13:58:31.672Z,6.23
2018-06-20T14:02:34.934Z,4.70
2018-06-20T14:06:38.874Z,4.53
2018-06-20T14:10:46.434Z,4.97
2018-06-20T14:14:50.282Z,5.13
2018-06-20T14:18:53.820Z,7.00
2018-06-20T14:22:57.484Z,6.63
2018-06-20T14:27:01.123Z,4.07
2018-06-20T14:31:10.172Z,6.70
2018-06-20T14:35:19.526Z,3.97
2018-06-20T14:39:28.475Z,4.07
2018-06-20T14:43:37.320Z,5.70
2018-06-20T14:47:41.707Z,5.13
2018-06-20T14:51:50.966Z,6.40
2018-06-20T14:55:59.599Z,6.17
2018-06-20T15:00:03.402Z,5.87
2018-06-20T15:04:07.687Z,3.70
2018-06-20T15:08:11.375Z,4.90
2018-06-20T15:12:22.041Z,4.60
2018-06-20T15:16:31.074Z,3.27
2018-06-20T15:20:35.961Z,2.90
2018-06-20T15:24:41.524Z,3.80
2018-06-20T15:28:50.755Z,3.40
2018-06-20T15:35:05.519Z,3.03
2018-06-20T15:39:11.576Z,4.53
2018-06-20T15:43:15.507Z,3.47
2018-06-20T15:47:20.217Z,3.30
2018-06-20T15:51:23.950Z,4.63
2018-06-20T15:55:27.508Z,5.77
2018-06-20T15:59:33.510Z,2.80
2018-06-20T16:03:40.707Z,4.30
2018-06-20T16:07:45.998Z,5.43
2018-06-20T16:11:49.843Z,5.47
2018-06-20T16:15:53.479Z,3.93
2018-06-20T16:20:07.325Z,3.73
2018-06-20T16:24:18.911Z,4.80
2018-06-20T16:28:28.177Z,4.30
2018-06-20T16:32:32.880Z,2.77
2018-06-20T16:36:36.681Z,2.60
2018-06-20T16:40:40.383Z,2.43
2018-06-20T16:44:45.530Z,5.80
2018-06-20T16:48:49.369Z,5.20
2018-06-20T16:52:53.079Z,4.33
2018-06-20T16:56:57.375Z,2.57
2018-06-20T17:01:12.594Z,3.87
2018-06-20T17:05:17.300Z,3.73
2018-06-20T17:09:24.388Z,6.63
2018-06-20T17:14:32.796Z,3.03
2018-06-20T17:19:45.659Z,4.07
2018-06-20T17:23:54.786Z,2.30
2018-06-20T17:28:00.715Z,4.70
2018-06-20T17:32:04.336Z,4.40
2018-06-20T17:36:09.242Z,5.43
2018-06-20T17:40:15.878Z,3.90
2018-06-20T17:44:19.864Z,6.57
2018-06-20T17:48:23.727Z,2.50
2018-06-20T17:52:32.816Z,3.53
2018-06-20T17:56:36.418Z,6.13
2018-06-20T18:00:47.324Z,4.30
2018-06-20T18:04:56.383Z,3.40
2018-06-20T18:09:05.858Z,3.13
2018-06-20T18:13:09.867Z,3.43
2018-06-20T18:17:13.723Z,3.33
2018-06-20T18:21:17.346Z,5.13
2018-06-20T18:25:21.100Z,5.40
2018-06-20T18:29:24.867Z,9.33
2018-06-20T18:33:33.538Z,3.83
2018-06-20T18:37:37.188Z,2.03
2018-06-20T18:41:40.833Z,4.73
2018-06-20T18:45:45.653Z,2.27
2018-06-20T18:49:51.391Z,3.07
2018-06-20T18:53:55.208Z,2.03
2018-06-20T18:58:04.047Z,4.87
2018-06-20T19:02:13.194Z,2.97
2018-06-20T19:06:24.845Z,4.70
2018-06-20T19:10:37.800Z,2.53
2018-06-20T19:14:42.606Z,2.63
2018-06-20T19:18:46.433Z,2.77
2018-06-20T19:22:50.013Z,3.40
2018-06-20T19:26:53.820Z,3.60
2018-06-20T19:30:57.411Z,3.70
2018-06-20T19:35:01.766Z,2.50
2018-06-20T19:39:12.676Z,5.43
2018-06-20T19:43:16.312Z,2.53
2018-06-20T19:47:20.000Z,3.77
2018-06-20T19:51:23.535Z,3.37
2018-06-20T19:55:27.074Z,3.33
2018-06-20T19:59:31.301Z,4.77
2018-06-20T20:03:35.044Z,2.53
2018-06-20T20:07:38.804Z,4.33
2018-06-20T20:11:43.355Z,2.70
2018-06-20T20:15:48.255Z,3.47
2018-06-20T20:19:51.875Z,3.57
2018-06-20T20:23:56.908Z,2.77
2018-06-20T20:28:00.592Z,4.53
2018-06-20T20:32:05.074Z,3.07
2018-06-20T20:36:09.964Z,9.87
2018-06-20T20:40:13.910Z,3.33
2018-06-20T20:44:18.839Z,4.53
2018-06-20T20:48:30.590Z,6.03
2018-06-20T20:52:34.199Z,3.63
2018-06-20T20:56:38.150Z,5.60
2018-06-20T21:00:42.147Z,3.60
2018-06-20T21:04:46.145Z,3.23
2018-06-20T21:08:50.136Z,2.90
2018-06-20T21:12:53.744Z,2.90
2018-06-20T21:16:57.459Z,2.80
2018-06-20T21:21:03.163Z,3.17
2018-06-20T21:25:06.777Z,3.23
2018-06-20T21:29:10.359Z,3.37
2018-06-20T21:33:14.228Z,3.77
2018-06-20T21:37:18.110Z,4.30
2018-06-20T21:41:21.807Z,4.17
2018-06-20T21:45:25.330Z,2.77
2018-06-20T21:49:29.002Z,3.50
2018-06-20T21:53:32.310Z,3.80
2018-06-20T21:57:36.010Z,3.70
2018-06-20T22:01:44.965Z,6.60
2018-06-20T22:05:49.355Z,3.23
2018-06-20T22:09:53.242Z,5.80
2018-06-20T22:13:56.796Z,6.50
2018-06-20T22:18:00.301Z,4.90
2018-06-20T22:22:04.019Z,4.23
2018-06-20T22:26:14.153Z,3.17
2018-06-20T22:30:17.935Z,5.37
2018-06-20T22:34:21.650Z,3.30
2018-06-20T22:38:25.308Z,3.50
2018-06-20T22:42:32.607Z,3.10
2018-06-20T22:46:36.313Z,4.90
2018-06-20T22:50:39.815Z,4.77
2018-06-20T22:54:45.459Z,5.57
2018-06-20T22:58:49.726Z,3.43
2018-06-20T23:02:53.807Z,4.33
2018-06-20T23:06:57.447Z,3.50
2018-06-20T23:11:00.892Z,3.93
2018-06-20T23:15:05.817Z,4.87
2018-06-20T23:19:09.858Z,6.87
2018-06-20T23:23:13.657Z,3.33
2018-06-20T23:27:17.468Z,4.20
2018-06-20T23:31:21.235Z,4.83
2018-06-20T23:35:29.131Z,4.90
2018-06-20T23:39:32.618Z,4.13
2018-06-20T23:43:36.291Z,3.47
2018-06-20T23:47:39.881Z,5.53
2018-06-20T23:51:43.806Z,3.73
2018-06-20T23:55:47.674Z,4.30
2018-06-20T23:59:51.302Z,3.23
